| time (UTC) | temp F | wind direction | speed knots | gust knots | rain 1hr in | rain 24hr in | rain mn in | humidity % | barometer mb |
| 20260507080648 | 47 | 298 | 1.7 | 5.2 | 0.00 | 0.06 | 0.04 | 84 | 1014.6 |
| 20260507075648 | 47 | 322 | 0.0 | 3.5 | 0.00 | 0.06 | 0.04 | 82 | 1014.4 |
| 20260507074648 | 48 | 330 | 0.0 | 2.6 | 0.00 | 0.06 | 0.04 | 81 | 1014.4 |
| 20260507073648 | 47 | 300 | 0.0 | 2.6 | 0.00 | 0.06 | 0.04 | 85 | 1014.4 |
| 20260507072648 | 47 | 122 | 0.0 | 4.3 | 0.00 | 0.06 | 0.04 | 87 | 1014.4 |
| 20260507071648 | 46 | 316 | 0.0 | 1.7 | 0.00 | 0.06 | 0.04 | 87 | 1014.4 |
| 20260507070648 | 46 | 319 | 0.0 | 2.6 | 0.00 | 0.06 | 0.04 | 83 | 1014.3 |
| 20260507065648 | 46 | 132 | 0.0 | 0.0 | 0.00 | 0.06 | 0.04 | 85 | 1014.2 |
| 20260507064649 | 46 | 132 | 0.0 | 2.6 | 0.00 | 0.06 | 0.04 | 82 | 1014.0 |
| 20260507063649 | 46 | 129 | 0.9 | 2.6 | 0.00 | 0.06 | 0.04 | 84 | 1014.0 |
| 20260507062649 | 45 | 54 | 0.0 | 0.9 | 0.00 | 0.06 | 0.04 | 88 | 1013.9 |
| 20260507061649 | 45 | 52 | 0.0 | 0.0 | 0.00 | 0.06 | 0.04 | 87 | 1013.9 |
| 20260507060649 | 45 | 161 | 0.0 | 0.0 | 0.00 | 0.06 | 0.04 | 85 | 1013.7 |
| 20260507055649 | 45 | 161 | 0.0 | 0.9 | 0.00 | 0.06 | 0.04 | 86 | 1013.7 |
| 20260507054649 | 44 | 160 | 1.7 | 2.6 | 0.00 | 0.06 | 0.04 | 86 | 1013.5 |
| 20260507053649 | 44 | 142 | 2.6 | 3.5 | 0.00 | 0.06 | 0.04 | 85 | 1013.5 |
| 20260507052649 | 43 | 323 | 0.0 | 0.9 | 0.00 | 0.06 | 0.04 | 88 | 1013.5 |
| 20260507051649 | 43 | 136 | 0.9 | 2.6 | 0.00 | 0.06 | 0.04 | 86 | 1013.3 |
| 20260507050649 | 43 | 127 | 1.7 | 3.5 | 0.00 | 0.06 | 0.04 | 87 | 1013.2 |
| 20260507045649 | 43 | 213 | 0.0 | 0.0 | 0.00 | 0.06 | 0.04 | 87 | 1013.0 |
| 20260507044649 | 42 | 171 | 0.0 | 0.0 | 0.00 | 0.06 | 0.04 | 87 | 1012.9 |
| 20260507043649 | 42 | 171 | 0.0 | 0.0 | 0.00 | 0.06 | 0.04 | 88 | 1012.8 |
| 20260507042649 | 42 | 203 | 0.0 | 0.0 | 0.00 | 0.06 | 0.04 | 89 | 1012.6 |
| 20260507041649 | 42 | 203 | 0.0 | 0.0 | 0.00 | 0.06 | 0.04 | 90 | 1012.6 |
| 20260507040649 | 42 | 247 | 0.0 | 1.7 | 0.00 | 0.06 | 0.04 | 91 | 1012.6 |
| 20260507035649 | 42 | 237 | 0.9 | 1.7 | 0.00 | 0.06 | 0.04 | 92 | 1012.5 |
| 20260507034649 | 41 | 136 | 0.0 | 0.0 | 0.00 | 0.06 | 0.04 | 94 | 1012.6 |
| 20260507033649 | 42 | 136 | 0.0 | 0.0 | 0.00 | 0.06 | 0.04 | 91 | 1012.5 |
| 20260507032649 | 42 | 136 | 0.0 | 0.0 | 0.00 | 0.06 | 0.04 | 87 | 1012.3 |
| 20260507031649 | 42 | 136 | 0.0 | 0.0 | 0.00 | 0.06 | 0.04 | 88 | 1012.3 |
| 20260507030649 | 42 | 210 | 0.9 | 1.7 | 0.00 | 0.06 | 0.04 | 88 | 1012.3 |
| 20260507025649 | 42 | 181 | 0.0 | 2.6 | 0.00 | 0.06 | 0.04 | 87 | 1012.3 |
| 20260507024649 | 42 | 158 | 1.7 | 2.6 | 0.00 | 0.06 | 0.04 | 86 | 1012.2 |
| 20260507023649 | 42 | 291 | 0.0 | 0.0 | 0.00 | 0.06 | 0.04 | 86 | 1012.2 |
| 20260507022649 | 42 | 156 | 1.7 | 3.5 | 0.00 | 0.06 | 0.04 | 87 | 1012.2 |
| 20260507021649 | 43 | 111 | 0.0 | 1.7 | 0.00 | 0.06 | 0.04 | 86 | 1012.1 |
| 20260507020649 | 42 | 282 | 0.0 | 0.9 | 0.00 | 0.06 | 0.04 | 87 | 1012.2 |
| 20260507015649 | 43 | 303 | 0.0 | 0.0 | 0.00 | 0.06 | 0.04 | 88 | 1012.1 |
| 20260507014649 | 42 | 303 | 0.0 | 0.0 | 0.00 | 0.06 | 0.04 | 89 | 1012.0 |
| 20260507013649 | 42 | 303 | 0.0 | 0.0 | 0.00 | 0.06 | 0.04 | 91 | 1011.9 |
| 20260507012649 | 42 | 316 | 0.9 | 3.5 | 0.00 | 0.06 | 0.04 | 93 | 1011.9 |
| 20260507011649 | 42 | 317 | 2.6 | 4.3 | 0.00 | 0.06 | 0.04 | 93 | 1011.9 |
| 20260507010649 | 43 | 310 | 3.5 | 3.5 | 0.00 | 0.06 | 0.04 | 86 | 1011.8 |
| 20260507005649 | 42 | 293 | 0.0 | 0.0 | 0.00 | 0.06 | 0.04 | 87 | 1011.8 |
| 20260507004649 | 43 | 293 | 0.0 | 0.9 | 0.00 | 0.06 | 0.04 | 86 | 1011.8 |
| 20260507003649 | 43 | 136 | 0.0 | 0.0 | 0.01 | 0.06 | 0.04 | 85 | 1011.9 |
| 20260507002649 | 43 | 142 | 0.0 | 0.9 | 0.02 | 0.06 | 0.04 | 84 | 1011.8 |
| 20260507001649 | 43 | 171 | 0.0 | 0.9 | 0.02 | 0.06 | 0.04 | 85 | 1011.6 |
| 20260507000649 | 43 | 130 | 0.0 | 0.0 | 0.03 | 0.06 | 0.04 | 85 | 1011.8 |
| 20260506235649 | 44 | 130 | 0.0 | 0.0 | 0.03 | 0.06 | 0.04 | 84 | 1011.6 |
| 20260506234849 | 44 | 130 | 0.0 | 0.0 | 0.04 | 0.06 | 0.04 | 85 | 1011.8 |
| 20260506234649 | 44 | 130 | 0.0 | 0.0 | 0.04 | 0.06 | 0.04 | 85 | 1011.8 |
| 20260506233649 | 44 | 196 | 0.9 | 7.0 | 0.03 | 0.05 | 0.03 | 85 | 1011.8 |
| 20260506232649 | 44 | 203 | 0.0 | 5.2 | 0.02 | 0.04 | 0.02 | 85 | 1011.9 |
| 20260506231649 | 44 | 126 | 1.7 | 5.2 | 0.02 | 0.04 | 0.02 | 85 | 1011.8 |
| 20260506230649 | 44 | 149 | 4.3 | 5.2 | 0.01 | 0.03 | 0.01 | 86 | 1011.8 |
| 20260506225649 | 45 | 146 | 1.7 | 5.2 | 0.01 | 0.03 | 0.01 | 87 | 1011.8 |
| 20260506224649 | 45 | 296 | 0.0 | 1.7 | 0.00 | 0.02 | 0.00 | 86 | 1011.8 |
| 20260506223649 | 45 | 307 | 0.0 | 1.7 | 0.00 | 0.02 | 0.02 | 83 | 1011.6 |
| 20260506222649 | 46 | 151 | 0.0 | 1.7 | 0.00 | 0.02 | 0.02 | 81 | 1011.6 |
| 20260506221650 | 46 | 160 | 1.7 | 2.6 | 0.00 | 0.02 | 0.02 | 79 | 1011.6 |
| 20260506220650 | 46 | 116 | 0.0 | 0.0 | 0.00 | 0.02 | 0.02 | 80 | 1011.6 |
| 20260506215650 | 46 | 116 | 0.0 | 0.0 | 0.00 | 0.02 | 0.02 | 80 | 1011.5 |
| 20260506214650 | 46 | 63 | 0.0 | 0.0 | 0.00 | 0.02 | 0.02 | 80 | 1011.4 |
| 20260506213650 | 46 | 87 | 0.9 | 0.9 | 0.00 | 0.02 | 0.02 | 80 | 1011.3 |
| 20260506212650 | 46 | 232 | 0.0 | 0.0 | 0.00 | 0.02 | 0.02 | 79 | 1011.4 |
| 20260506211650 | 47 | 232 | 0.0 | 1.7 | 0.00 | 0.02 | 0.02 | 79 | 1011.3 |
| 20260506210650 | 47 | 87 | 0.0 | 1.7 | 0.00 | 0.02 | 0.02 | 79 | 1011.3 |
| 20260506205650 | 47 | 158 | 1.7 | 2.6 | 0.00 | 0.02 | 0.02 | 80 | 1011.3 |
| 20260506204650 | 46 | 293 | 0.0 | 0.0 | 0.00 | 0.02 | 0.02 | 82 | 1011.2 |
| 20260506203650 | 46 | 293 | 0.0 | 0.9 | 0.00 | 0.02 | 0.02 | 83 | 1011.2 |
| 20260506202650 | 48 | 319 | 0.0 | 0.0 | 0.00 | 0.02 | 0.02 | 78 | 1011.2 |
| 20260506201650 | 48 | 150 | 0.0 | 0.0 | 0.00 | 0.02 | 0.02 | 75 | 1011.1 |
| 20260506200650 | 49 | 165 | 0.0 | 0.0 | 0.00 | 0.02 | 0.02 | 74 | 1010.9 |
| 20260506195650 | 49 | 165 | 0.0 | 0.0 | 0.00 | 0.02 | 0.02 | 73 | 1010.9 |
| 20260506194650 | 50 | 165 | 0.0 | 1.7 | 0.00 | 0.02 | 0.02 | 72 | 1010.9 |
| 20260506193650 | 50 | 45 | 0.0 | 0.0 | 0.00 | 0.02 | 0.02 | 71 | 1010.7 |
| 20260506192650 | 50 | 45 | 0.0 | 0.9 | 0.00 | 0.02 | 0.02 | 69 | 1010.6 |
| 20260506191650 | 51 | 80 | 0.0 | 0.9 | 0.00 | 0.02 | 0.02 | 69 | 1010.5 |
| 20260506190650 | 52 | 146 | 0.0 | 0.0 | 0.00 | 0.02 | 0.02 | 69 | 1010.5 |
| 20260506185650 | 53 | 146 | 0.0 | 0.0 | 0.00 | 0.02 | 0.02 | 65 | 1010.1 |
| 20260506184650 | 55 | 160 | 0.0 | 2.6 | 0.00 | 0.02 | 0.02 | 62 | 1010.0 |
| 20260506183650 | 58 | 160 | 0.0 | 0.9 | 0.00 | 0.02 | 0.02 | 58 | 1009.9 |
| 20260506182650 | 63 | 147 | 0.0 | 0.9 | 0.00 | 0.02 | 0.02 | 51 | 1009.8 |
| 20260506181650 | 72 | 137 | 1.7 | 2.6 | 0.00 | 0.02 | 0.02 | 44 | 1009.7 |
| 20260506180650 | 75 | 151 | 0.0 | 0.0 | 0.00 | 0.02 | 0.02 | 44 | 1009.7 |
| 20260506175650 | 73 | 105 | 0.0 | 3.5 | 0.00 | 0.02 | 0.02 | 49 | 1009.5 |
| 20260506174650 | 66 | 306 | 0.0 | 1.7 | 0.00 | 0.02 | 0.02 | 59 | 1009.4 |
| 20260506173650 | 53 | 282 | 1.7 | 7.8 | 0.00 | 0.02 | 0.02 | 81 | 1009.4 |
| 20260506172650 | 48 | 267 | 0.0 | 3.5 | 0.00 | 0.02 | 0.02 | 86 | 1009.3 |
| 20260506171650 | 48 | 320 | 4.3 | 4.3 | 0.00 | 0.02 | 0.02 | 84 | 1009.3 |
| 20260506170650 | 50 | 336 | 2.6 | 5.2 | 0.00 | 0.02 | 0.02 | 77 | 1009.1 |
| 20260506165650 | 52 | 4 | 0.9 | 3.5 | 0.00 | 0.02 | 0.02 | 67 | 1009.1 |
| 20260506164650 | 53 | 286 | 0.0 | 5.2 | 0.00 | 0.02 | 0.02 | 71 | 1009.0 |
| 20260506163650 | 59 | 324 | 6.1 | 7.8 | 0.00 | 0.02 | 0.02 | 46 | 1008.7 |
| 20260506162650 | 70 | 167 | 0.0 | 2.6 | 0.00 | 0.02 | 0.02 | 44 | 1008.7 |
| 20260506161650 | 64 | 188 | 0.0 | 4.3 | 0.00 | 0.02 | 0.02 | 76 | 1008.7 |
| 20260506160650 | 50 | 133 | 2.6 | 6.1 | 0.01 | 0.02 | 0.02 | 81 | 1008.6 |
| 20260506155650 | 47 | 225 | 2.6 | 5.2 | 0.02 | 0.02 | 0.02 | 84 | 1008.6 |
| 20260506154650 | 46 | 261 | 0.0 | 5.2 | 0.02 | 0.02 | 0.02 | 83 | 1008.7 |
| 20260506153650 | 46 | 334 | 3.5 | 7.0 | 0.02 | 0.02 | 0.02 | 83 | 1008.7 |
| 20260506152650 | 46 | 136 | 4.3 | 11.3 | 0.02 | 0.02 | 0.02 | 85 | 1008.5 |
| 20260506151650 | 45 | 157 | 7.0 | 9.6 | 0.02 | 0.02 | 0.02 | 86 | 1008.3 |
| 20260506150650 | 46 | 164 | 9.6 | 12.2 | 0.01 | 0.01 | 0.01 | 84 | 1008.5 |
| 20260506145650 | 47 | 129 | 7.0 | 15.6 | 0.00 | 0.00 | 0.00 | 78 | 1007.8 |
| 20260506144650 | 50 | 143 | 7.0 | 14.8 | 0.00 | 0.00 | 0.00 | 71 | 1007.8 |
| 20260506143650 | 52 | 147 | 8.7 | 9.6 | 0.00 | 0.00 | 0.00 | 71 | 1007.6 |
| 20260506142650 | 52 | 140 | 7.8 | 8.7 | 0.00 | 0.00 | 0.00 | 70 | 1007.6 |
| 20260506141650 | 53 | 274 | 7.0 | 7.0 | 0.00 | 0.00 | 0.00 | 69 | 1007.6 |
| 20260506140650 | 52 | 265 | 3.5 | 7.8 | 0.00 | 0.00 | 0.00 | 79 | 1007.9 |
| 20260506135650 | 54 | 329 | 3.5 | 7.0 | 0.00 | 0.00 | 0.00 | 77 | 1007.6 |
| 20260506134650 | 58 | 317 | 7.0 | 7.8 | 0.00 | 0.00 | 0.00 | 64 | 1007.4 |
| 20260506133650 | 58 | 347 | 2.6 | 3.5 | 0.00 | 0.00 | 0.00 | 65 | 1007.4 |
| 20260506132650 | 61 | 327 | 2.6 | 4.3 | 0.00 | 0.00 | 0.00 | 62 | 1007.3 |
| 20260506131651 | 59 | 305 | 0.0 | 2.6 | 0.00 | 0.00 | 0.00 | 66 | 1007.3 |
| 20260506130651 | 59 | 133 | 0.0 | 2.6 | 0.00 | 0.00 | 0.00 | 67 | 1007.2 |
| 20260506125651 | 60 | 192 | 0.0 | 1.7 | 0.00 | 0.00 | 0.00 | 61 | 1007.2 |
| 20260506124651 | 60 | 104 | 0.0 | 6.1 | 0.00 | 0.00 | 0.00 | 71 | 1007.0 |
| 20260506123651 | 56 | 149 | 0.9 | 0.9 | 0.00 | 0.00 | 0.00 | 74 | 1007.0 |
| 20260506122651 | 57 | 317 | 0.9 | 3.5 | 0.00 | 0.00 | 0.00 | 70 | 1007.1 |
| 20260506121651 | 58 | 26 | 0.0 | 0.9 | 0.00 | 0.00 | 0.00 | 72 | 1007.0 |
| 20260506120651 | 56 | 331 | 0.9 | 3.5 | 0.00 | 0.00 | 0.00 | 76 | 1006.7 |
| 20260506115651 | 55 | 67 | 3.5 | 6.1 | 0.00 | 0.00 | 0.00 | 76 | 1007.0 |
| 20260506114651 | 52 | 286 | 0.9 | 5.2 | 0.00 | 0.00 | 0.00 | 79 | 1007.2 |
| 20260506113651 | 52 | 326 | 2.6 | 7.8 | 0.00 | 0.00 | 0.00 | 78 | 1007.2 |
| 20260506112651 | 53 | 322 | 0.9 | 3.5 | 0.00 | 0.00 | 0.00 | 78 | 1007.1 |
| 20260506111651 | 53 | 119 | 6.1 | 7.0 | 0.00 | 0.00 | 0.00 | 79 | 1006.7 |
| 20260506110651 | 53 | 286 | 0.0 | 5.2 | 0.00 | 0.00 | 0.00 | 81 | 1006.9 |
| 20260506105651 | 53 | 333 | 2.6 | 5.2 | 0.00 | 0.00 | 0.00 | 83 | 1006.7 |
| 20260506104651 | 53 | 336 | 3.5 | 6.1 | 0.00 | 0.00 | 0.00 | 84 | 1006.7 |
| 20260506103651 | 52 | 348 | 3.5 | 6.1 | 0.00 | 0.00 | 0.00 | 85 | 1006.9 |
| 20260506102651 | 53 | 0 | 0.9 | 2.6 | 0.00 | 0.00 | 0.00 | 74 | 1006.9 |
| 20260506101651 | 53 | 309 | 1.7 | 4.3 | 0.00 | 0.00 | 0.00 | 71 | 1007.1 |
| 20260506100651 | 54 | 300 | 0.0 | 0.9 | 0.00 | 0.00 | 0.00 | 74 | 1007.2 |
| 20260506095651 | 53 | 66 | 1.7 | 1.7 | 0.00 | 0.00 | 0.00 | 78 | 1007.1 |
| 20260506094651 | 52 | 327 | 2.6 | 5.2 | 0.00 | 0.00 | 0.00 | 77 | 1007.6 |
| 20260506093651 | 53 | 317 | 1.7 | 4.3 | 0.00 | 0.00 | 0.00 | 77 | 1007.2 |
| 20260506092651 | 52 | 326 | 6.1 | 6.1 | 0.00 | 0.00 | 0.00 | 74 | 1007.2 |
| 20260506091651 | 52 | 317 | 5.2 | 9.6 | 0.00 | 0.00 | 0.00 | 74 | 1007.0 |
| 20260506090651 | 53 | 307 | 5.2 | 7.0 | 0.00 | 0.00 | 0.00 | 75 | 1007.0 |
| 20260506085651 | 51 | 291 | 2.6 | 7.0 | 0.00 | 0.00 | 0.00 | 75 | 1007.0 |
| 20260506084651 | 51 | 330 | 2.6 | 7.0 | 0.00 | 0.00 | 0.00 | 76 | 1007.2 |
| 20260506083651 | 52 | 338 | 2.6 | 7.8 | 0.00 | 0.00 | 0.00 | 75 | 1007.1 |
| 20260506082651 | 52 | 330 | 0.9 | 1.7 | 0.00 | 0.00 | 0.00 | 77 | 1007.0 |
| 20260506081651 | 51 | 330 | 0.9 | 3.5 | 0.00 | 0.00 | 0.00 | 79 | 1007.3 |